Time;durP1;ratioP1;P1;durP2;ratioP2;P2;SDS_P1;SDS_P2;PMS_P1;PMS_P2;Temp;Humidity;BMP_temperature;BMP_pressure;BME280_temperature;BME280_humidity;BME280_pressure;Samples;Min_cycle;Max_cycle;Signal;HPM_P1;HPM_P2
2021/08/20 04:01:16;;;;;;;6.60;5.43;;;15.10;99.90;;;;;;5527279;23;20521;-67
2021/08/20 04:03:42;;;;;;;7.27;5.93;;;15.10;99.90;;;;;;4935264;29;20469;-67
2021/08/20 04:06:10;;;;;;;7.47;6.17;;;15.10;99.90;;;;;;4925357;29;21009;-67
2021/08/20 04:08:37;;;;;;;8.17;6.70;;;15.10;99.90;;;;;;4933992;29;20498;-68
2021/08/20 04:11:04;;;;;;;9.83;6.73;;;15.10;99.90;;;;;;4940153;28;20827;-67
2021/08/20 04:13:30;;;;;;;6.30;5.33;;;15.10;99.90;;;;;;4945561;29;20465;-67
2021/08/20 04:15:57;;;;;;;5.47;4.90;;;15.10;99.90;;;;;;4946750;29;20516;-67
2021/08/20 04:18:25;;;;;;;7.17;5.63;;;15.10;99.90;;;;;;4936306;29;20462;-67
2021/08/20 04:20:51;;;;;;;7.50;5.80;;;15.00;99.90;;;;;;4940876;29;21063;-67
2021/08/20 04:23:18;;;;;;;6.00;4.87;;;15.00;99.90;;;;;;4954292;28;20489;-68
2021/08/20 04:25:45;;;;;;;11.10;6.10;;;15.00;99.90;;;;;;4951445;29;20485;-67
2021/08/20 04:28:11;;;;;;;7.97;6.20;;;15.00;99.90;;;;;;4941479;29;20465;-67
2021/08/20 04:30:38;;;;;;;9.70;6.00;;;15.00;99.90;;;;;;4935079;29;20485;-67
2021/08/20 04:33:05;;;;;;;6.40;5.80;;;15.00;99.90;;;;;;4942974;29;20486;-67
2021/08/20 04:35:33;;;;;;;6.30;5.70;;;15.00;99.90;;;;;;4935037;29;20458;-67
2021/08/20 04:37:59;;;;;;;9.10;4.80;;;15.00;99.90;;;;;;4933004;29;20470;-67
2021/08/20 04:40:26;;;;;;;7.83;4.70;;;15.00;99.90;;;;;;4934793;29;20457;-67
2021/08/20 04:42:52;;;;;;;6.10;4.70;;;15.00;99.90;;;;;;4935440;29;20528;-67
2021/08/20 04:45:19;;;;;;;7.40;5.20;;;15.00;99.90;;;;;;4936163;29;20840;-66
2021/08/20 04:47:46;;;;;;;5.13;4.53;;;15.00;99.90;;;;;;4945675;29;20469;-67
2021/08/20 04:50:14;;;;;;;5.30;4.80;;;14.90;99.90;;;;;;4951391;29;20501;-66
2021/08/20 04:52:42;;;;;;;8.43;4.67;;;14.90;99.90;;;;;;4945145;29;20465;-67
2021/08/20 04:55:10;;;;;;;6.37;4.93;;;14.90;99.90;;;;;;4943565;29;20465;-67
2021/08/20 04:57:36;;;;;;;5.10;4.57;;;14.90;99.90;;;;;;4951508;28;20524;-67
2021/08/20 05:00:07;;;;;;;5.70;5.10;;;14.90;99.90;;;;;;4936435;29;20948;-66
2021/08/20 05:02:35;;;;;;;8.37;4.37;;;14.90;99.90;;;;;;4942665;29;20889;-68
2021/08/20 05:05:04;;;;;;;6.70;4.10;;;14.90;99.90;;;;;;4937289;29;20495;-68
2021/08/20 05:07:31;;;;;;;6.53;4.40;;;14.90;99.90;;;;;;4937285;29;20457;-68
2021/08/20 05:10:02;;;;;;;4.67;3.90;;;14.90;99.90;;;;;;4940532;29;20816;-68
2021/08/20 05:12:28;;;;;;;5.20;4.70;;;14.90;99.90;;;;;;4947480;28;20493;-69
2021/08/20 05:14:55;;;;;;;5.07;4.63;;;14.90;99.90;;;;;;4934518;29;21009;-68
2021/08/20 05:17:21;;;;;;;5.03;4.47;;;14.90;99.90;;;;;;4934799;29;20494;-69
2021/08/20 05:19:48;;;;;;;5.93;5.27;;;14.90;99.90;;;;;;4934864;29;20473;-68
2021/08/20 05:22:15;;;;;;;8.10;5.73;;;14.90;99.90;;;;;;4951136;28;20860;-68
2021/08/20 05:24:41;;;;;;;5.53;5.00;;;14.90;99.90;;;;;;4947022;29;20465;-67
2021/08/20 05:27:09;;;;;;;6.00;5.23;;;14.90;99.90;;;;;;4934836;29;20469;-68
2021/08/20 05:29:36;;;;;;;11.90;5.20;;;14.90;99.90;;;;;;4934483;29;20488;-67
2021/08/20 05:32:03;;;;;;;8.63;6.37;;;14.90;99.90;;;;;;4934411;29;20501;-69
2021/08/20 05:34:29;;;;;;;4.47;4.20;;;14.90;99.90;;;;;;4935045;29;20470;-67
2021/08/20 05:36:56;;;;;;;8.93;5.60;;;14.90;99.90;;;;;;4934919;29;20458;-67
2021/08/20 05:39:22;;;;;;;6.00;5.40;;;14.90;99.90;;;;;;4934706;29;20886;-67
2021/08/20 05:41:49;;;;;;;6.70;6.03;;;14.90;99.90;;;;;;4940431;29;20871;-67
2021/08/20 05:44:17;;;;;;;6.63;4.80;;;14.80;99.90;;;;;;4942471;29;20477;-67
2021/08/20 05:46:44;;;;;;;7.20;4.80;;;14.80;99.90;;;;;;4956948;29;20497;-68
2021/08/20 05:49:10;;;;;;;5.77;5.00;;;14.80;99.90;;;;;;4938565;29;20608;-68
2021/08/20 05:51:37;;;;;;;4.70;4.30;;;14.70;99.90;;;;;;4950630;29;20476;-68
2021/08/20 05:54:03;;;;;;;5.77;5.03;;;14.80;99.90;;;;;;4939553;29;20461;-68
2021/08/20 05:56:30;;;;;;;5.20;4.70;;;14.70;99.90;;;;;;4950259;29;20586;-68
2021/08/20 05:58:57;;;;;;;6.43;5.90;;;14.70;99.90;;;;;;4937285;29;20477;-68
2021/08/20 06:01:25;;;;;;;4.60;4.20;;;14.70;99.90;;;;;;4936631;29;20489;-67
2021/08/20 06:03:51;;;;;;;4.87;4.20;;;14.70;99.90;;;;;;4938095;29;20469;-69
2021/08/20 06:06:18;;;;;;;4.60;4.20;;;14.60;99.90;;;;;;4937976;29;20501;-69
2021/08/20 06:08:44;;;;;;;6.37;5.10;;;14.60;99.90;;;;;;4936648;29;20954;-68
2021/08/20 06:11:11;;;;;;;4.80;4.40;;;14.60;99.90;;;;;;4936997;29;20993;-68
2021/08/20 06:13:38;;;;;;;6.10;5.17;;;14.60;99.90;;;;;;4940492;29;20485;-67
2021/08/20 06:16:05;;;;;;;6.40;4.53;;;14.70;99.90;;;;;;4936505;29;20488;-67
2021/08/20 06:18:33;;;;;;;4.77;4.27;;;14.60;99.90;;;;;;4942768;29;20467;-67
2021/08/20 06:21:00;;;;;;;5.30;4.80;;;14.70;99.90;;;;;;4941345;29;20482;-70
2021/08/20 06:23:26;;;;;;;6.20;4.47;;;14.70;99.90;;;;;;4942705;29;21005;-68
2021/08/20 06:25:53;;;;;;;4.87;4.30;;;14.70;99.90;;;;;;4942282;29;20485;-68
2021/08/20 06:28:20;;;;;;;4.63;4.23;;;14.70;99.90;;;;;;4936712;29;20576;-68
2021/08/20 06:30:47;;;;;;;5.53;5.00;;;14.70;99.90;;;;;;4936982;29;20536;-69
2021/08/20 06:33:13;;;;;;;8.00;5.90;;;14.80;99.90;;;;;;4929801;29;20838;-69
2021/08/20 06:35:41;;;;;;;6.33;5.60;;;14.80;99.90;;;;;;4918307;29;20498;-70
2021/08/20 06:38:08;;;;;;;6.57;5.80;;;14.90;99.90;;;;;;4932864;29;20457;-69
2021/08/20 06:40:35;;;;;;;6.63;5.93;;;14.90;99.90;;;;;;4936895;29;20493;-70
2021/08/20 06:43:02;;;;;;;6.10;5.50;;;14.90;99.90;;;;;;4936722;29;20476;-69
2021/08/20 06:45:28;;;;;;;7.90;5.50;;;14.90;99.90;;;;;;4938670;29;20485;-69
2021/08/20 06:47:55;;;;;;;6.40;5.80;;;14.90;99.90;;;;;;4942370;29;20462;-69
2021/08/20 06:50:22;;;;;;;6.10;5.33;;;14.90;99.90;;;;;;4918594;29;20491;-69
2021/08/20 06:52:50;;;;;;;4.87;4.47;;;15.00;99.90;;;;;;4925566;29;20469;-69
2021/08/20 06:55:16;;;;;;;6.43;5.30;;;15.00;99.90;;;;;;4936283;29;20465;-69
2021/08/20 06:57:43;;;;;;;5.60;5.03;;;14.90;99.90;;;;;;4936223;29;20469;-69
2021/08/20 07:00:10;;;;;;;5.10;4.60;;;15.00;99.90;;;;;;4936458;29;20465;-69
2021/08/20 07:02:43;;;;;;;4.37;4.07;;;15.00;99.90;;;;;;4937052;29;20473;-68
2021/08/20 07:05:12;;;;;;;4.50;3.67;;;15.10;99.90;;;;;;4936619;29;20465;-69
2021/08/20 07:07:39;;;;;;;4.33;3.80;;;15.10;99.90;;;;;;4936756;29;20907;-69
2021/08/20 07:10:09;;;;;;;4.00;3.70;;;15.10;99.90;;;;;;4936248;29;21139;-69
2021/08/20 07:12:35;;;;;;;3.83;3.53;;;15.10;99.90;;;;;;4936730;29;20470;-70
2021/08/20 07:15:02;;;;;;;3.53;3.20;;;15.20;99.90;;;;;;4928661;29;20473;-69
2021/08/20 07:17:29;;;;;;;4.10;3.80;;;15.20;99.90;;;;;;4936684;29;20962;-70
2021/08/20 07:19:55;;;;;;;4.20;3.90;;;15.20;99.90;;;;;;4932834;29;20490;-69
2021/08/20 07:22:22;;;;;;;3.07;2.87;;;15.20;99.90;;;;;;4934000;29;20494;-69
2021/08/20 07:24:49;;;;;;;3.13;2.93;;;15.30;99.90;;;;;;4934066;29;20462;-69
2021/08/20 07:27:17;;;;;;;4.23;3.90;;;15.30;99.90;;;;;;4934993;29;20602;-70
2021/08/20 07:29:44;;;;;;;4.80;3.80;;;15.30;99.90;;;;;;4935871;29;20537;-68
2021/08/20 07:32:11;;;;;;;3.07;2.87;;;15.30;99.90;;;;;;4936309;29;20561;-69
2021/08/20 07:34:37;;;;;;;2.83;2.63;;;15.40;99.90;;;;;;4936107;29;20947;-68
2021/08/20 07:37:05;;;;;;;3.23;3.13;;;15.30;99.90;;;;;;4936049;29;20458;-71
2021/08/20 07:39:32;;;;;;;2.90;2.80;;;15.30;99.90;;;;;;4935653;29;20852;-70
2021/08/20 07:41:59;;;;;;;3.30;2.70;;;15.30;99.90;;;;;;4937996;29;20531;-69
2021/08/20 07:44:27;;;;;;;2.57;2.50;;;15.40;99.90;;;;;;4942924;29;20533;-70
2021/08/20 07:46:54;;;;;;;2.50;2.47;;;15.50;99.90;;;;;;4940366;28;20477;-69
2021/08/20 07:49:21;;;;;;;2.30;2.30;;;15.60;99.90;;;;;;4935662;29;20470;-68
2021/08/20 07:51:47;;;;;;;2.67;2.50;;;15.50;99.90;;;;;;4938048;29;20485;-69
2021/08/20 07:54:14;;;;;;;2.80;2.63;;;15.60;99.90;;;;;;4937329;29;20466;-69
2021/08/20 07:56:41;;;;;;;2.60;2.50;;;15.60;99.90;;;;;;4936091;29;20910;-70
2021/08/20 07:59:07;;;;;;;2.37;2.27;;;15.60;99.90;;;;;;4942964;29;20889;-68
2021/08/20 08:01:35;;;;;;;2.20;2.10;;;15.60;99.90;;;;;;4935878;29;20497;-68
2021/08/20 08:04:02;;;;;;;2.30;2.30;;;15.70;99.90;;;;;;4942106;29;20975;-67
2021/08/20 08:06:29;;;;;;;1.80;1.80;;;15.70;99.90;;;;;;4932697;29;20493;-67
2021/08/20 08:08:55;;;;;;;2.60;2.50;;;15.70;99.90;;;;;;4919648;29;20470;-67
2021/08/20 08:11:22;;;;;;;1.87;1.87;;;15.70;99.90;;;;;;4920421;29;21017;-66
2021/08/20 08:13:49;;;;;;;2.20;2.20;;;15.70;99.90;;;;;;4932987;29;20471;-67
2021/08/20 08:16:15;;;;;;;1.70;1.70;;;15.70;99.90;;;;;;4936901;29;21168;-66
2021/08/20 08:18:43;;;;;;;1.77;1.70;;;15.80;99.90;;;;;;4935002;29;20466;-67
2021/08/20 08:21:10;;;;;;;1.90;1.90;;;15.90;99.90;;;;;;4919780;29;20490;-67
2021/08/20 08:23:38;;;;;;;1.80;1.80;;;15.90;99.90;;;;;;4936759;29;20481;-67
2021/08/20 08:26:05;;;;;;;1.60;1.60;;;16.00;99.90;;;;;;4937295;29;20482;-67
2021/08/20 08:28:32;;;;;;;2.40;2.30;;;16.10;99.90;;;;;;4937875;29;20560;-67
2021/08/20 08:31:02;;;;;;;2.97;2.73;;;16.20;99.90;;;;;;4939953;29;20485;-67
2021/08/20 08:33:29;;;;;;;1.97;1.97;;;16.20;99.90;;;;;;4949892;29;20460;-67
2021/08/20 08:35:57;;;;;;;2.23;2.13;;;16.20;99.90;;;;;;4951716;29;20465;-67
2021/08/20 08:38:24;;;;;;;2.23;2.10;;;16.30;99.90;;;;;;4946597;28;20513;-67
2021/08/20 08:40:50;;;;;;;2.57;2.37;;;16.40;99.90;;;;;;4944405;29;20635;-67
2021/08/20 08:43:17;;;;;;;2.00;1.90;;;16.50;99.90;;;;;;4936412;29;20934;-67
2021/08/20 08:45:44;;;;;;;2.00;2.00;;;16.60;99.90;;;;;;4947442;29;20461;-68
2021/08/20 08:48:13;;;;;;;2.30;2.20;;;16.70;99.90;;;;;;4916844;29;20554;-67
2021/08/20 08:50:43;;;;;;;2.47;2.27;;;16.70;99.90;;;;;;4943136;29;20500;-67
2021/08/20 08:53:11;;;;;;;1.87;1.87;;;16.70;99.90;;;;;;4940217;29;20461;-66
2021/08/20 08:55:38;;;;;;;1.40;1.40;;;16.70;99.90;;;;;;4935468;29;20596;-67
2021/08/20 08:58:06;;;;;;;1.60;1.50;;;16.70;99.90;;;;;;4936566;29;20468;-67
2021/08/20 09:00:34;;;;;;;1.70;1.70;;;16.70;99.90;;;;;;4933806;29;20505;-66
2021/08/20 09:03:01;;;;;;;1.50;1.50;;;16.70;99.90;;;;;;4934980;29;20946;-66
2021/08/20 09:05:42;;;;;;;2.50;2.50;;;16.80;99.90;;;;;;4933060;29;20482;-67
2021/08/20 09:08:13;;;;;;;1.80;1.73;;;17.00;99.90;;;;;;4934664;29;20910;-66
2021/08/20 09:10:49;;;;;;;2.03;2.00;;;17.00;99.90;;;;;;4934369;29;20544;-67
2021/08/20 09:13:16;;;;;;;2.10;2.10;;;17.00;99.90;;;;;;4936882;29;20576;-67
2021/08/20 09:15:45;;;;;;;2.97;2.77;;;17.00;99.90;;;;;;4938116;29;20539;-66
2021/08/20 09:18:21;;;;;;;3.80;3.60;;;17.00;99.90;;;;;;4951889;29;20458;-66
2021/08/20 09:20:48;;;;;;;3.60;3.40;;;16.90;99.90;;;;;;4950587;28;20508;-67
2021/08/20 09:23:22;;;;;;;3.40;3.10;;;16.90;99.90;;;;;;4942014;29;20863;-67
2021/08/20 09:25:50;;;;;;;3.90;3.60;;;16.90;99.90;;;;;;4948173;29;20512;-66
2021/08/20 09:28:20;;;;;;;4.13;3.80;;;17.00;99.90;;;;;;4958307;29;20492;-66
2021/08/20 09:31:06;;;;;;;4.60;4.20;;;17.00;99.90;;;;;;4957609;29;20976;-66
2021/08/20 09:33:34;;;;;;;4.97;4.67;;;17.20;99.90;;;;;;4947525;29;20465;-68
2021/08/20 09:36:02;;;;;;;5.20;4.70;;;17.30;99.90;;;;;;4944204;29;20529;-67
2021/08/20 09:38:32;;;;;;;4.57;4.27;;;17.30;99.90;;;;;;4942700;29;20546;-67
2021/08/20 09:41:01;;;;;;;5.00;4.50;;;17.50;99.90;;;;;;4953796;29;20501;-67
2021/08/20 09:43:31;;;;;;;4.70;4.40;;;17.80;99.90;;;;;;4957070;29;20464;-67
2021/08/20 09:46:01;;;;;;;6.07;5.40;;;17.80;99.90;;;;;;4950002;29;20457;-67
2021/08/20 09:48:47;;;;;;;5.87;5.33;;;17.90;99.90;;;;;;4918614;29;20860;-67
2021/08/20 09:51:39;;;;;;;6.33;5.73;;;18.00;99.90;;;;;;4936826;29;20473;-67
2021/08/20 09:54:08;;;;;;;5.97;5.50;;;18.10;99.90;;;;;;4956861;28;20945;-67
2021/08/20 09:56:36;;;;;;;5.80;5.40;;;18.10;99.90;;;;;;4945123;29;20521;-67
2021/08/20 09:59:05;;;;;;;7.47;6.73;;;18.20;99.90;;;;;;4945189;29;20555;-67
2021/08/20 10:01:35;;;;;;;6.97;6.40;;;18.40;99.90;;;;;;4942819;28;20575;-67
2021/08/20 10:04:04;;;;;;;6.83;6.17;;;18.70;99.90;;;;;;4944580;29;20504;-67
2021/08/20 10:06:32;;;;;;;8.87;8.07;;;19.00;99.90;;;;;;4942397;29;20484;-67
2021/08/20 10:09:03;;;;;;;17.00;9.00;;;19.10;99.90;;;;;;4956718;29;20941;-67
2021/08/20 10:11:35;;;;;;;9.37;8.33;;;19.20;99.90;;;;;;4950938;28;20496;-67
2021/08/20 10:14:03;;;;;;;10.20;8.60;;;19.20;99.90;;;;;;4936999;29;20552;-66
2021/08/20 10:16:34;;;;;;;9.00;8.30;;;19.30;99.90;;;;;;4936780;29;20501;-67
2021/08/20 10:19:02;;;;;;;8.40;7.70;;;19.20;99.90;;;;;;4944856;29;20469;-67
2021/08/20 10:21:30;;;;;;;9.20;8.40;;;19.30;99.90;;;;;;4937977;29;20485;-67
2021/08/20 10:23:57;;;;;;;10.40;7.60;;;19.40;99.90;;;;;;4945558;29;20520;-67
2021/08/20 10:26:25;;;;;;;8.97;8.17;;;19.40;99.90;;;;;;4946191;29;20476;-67
2021/08/20 10:28:54;;;;;;;8.70;8.00;;;19.50;99.90;;;;;;4935674;29;20489;-67
2021/08/20 10:31:22;;;;;;;8.90;8.20;;;19.50;99.90;;;;;;4936773;29;20818;-67
2021/08/20 10:33:49;;;;;;;8.43;7.63;;;19.70;99.90;;;;;;4936577;29;20539;-67
2021/08/20 10:36:16;;;;;;;8.93;8.23;;;19.80;99.90;;;;;;4937431;29;20946;-67
2021/08/20 10:38:48;;;;;;;8.77;8.00;;;19.90;99.90;;;;;;4936767;29;20474;-67
2021/08/20 10:41:17;;;;;;;10.50;9.50;;;20.00;99.90;;;;;;4936260;29;20848;-68
2021/08/20 10:43:49;;;;;;;10.23;9.23;;;20.10;99.90;;;;;;4934341;29;20820;-68
2021/08/20 10:46:49;;;;;;;10.60;9.60;;;20.10;99.90;;;;;;4931819;29;20473;-68
2021/08/20 10:49:21;;;;;;;11.10;10.10;;;20.20;99.90;;;;;;4922319;29;20466;-67
2021/08/20 10:52:02;;;;;;;9.07;8.17;;;20.20;99.90;;;;;;4935212;29;20849;-68
2021/08/20 10:55:21;;;;;;;9.93;8.97;;;20.30;99.90;;;;;;4934401;29;21004;-68
2021/08/20 10:58:12;;;;;;;8.93;8.13;;;20.40;99.90;;;;;;4929787;29;20489;-67
2021/08/20 11:00:41;;;;;;;11.17;10.00;;;20.50;99.90;;;;;;4936097;29;20524;-67
2021/08/20 11:03:09;;;;;;;10.40;9.40;;;20.40;99.90;;;;;;4935753;29;20537;-67
2021/08/20 11:05:39;;;;;;;10.50;9.53;;;20.30;99.90;;;;;;4932830;29;20462;-68
2021/08/20 11:08:33;;;;;;;10.63;9.63;;;20.20;99.90;;;;;;4935236;29;20591;-67
2021/08/20 11:11:02;;;;;;;11.00;9.87;;;20.00;99.90;;;;;;4935630;29;20998;-67
2021/08/20 11:13:28;;;;;;;9.87;9.27;;;20.00;99.90;;;;;;4935862;29;20485;-67
2021/08/20 11:15:56;;;;;;;10.33;9.50;;;20.00;99.90;;;;;;4936645;29;20457;-67
2021/08/20 11:18:41;;;;;;;9.97;9.17;;;20.00;99.90;;;;;;4935822;29;20491;-67
2021/08/20 11:21:09;;;;;;;10.60;9.80;;;20.20;99.90;;;;;;4937840;29;20521;-67
2021/08/20 11:23:36;;;;;;;10.90;10.10;;;20.30;99.90;;;;;;4935420;29;20516;-67
2021/08/20 11:26:04;;;;;;;10.67;9.80;;;20.50;99.90;;;;;;4944416;29;20468;-67
2021/08/20 11:28:33;;;;;;;12.50;11.60;;;20.60;99.90;;;;;;4945250;29;20487;-69
2021/08/20 11:31:01;;;;;;;10.33;9.47;;;20.80;99.90;;;;;;4933907;29;20580;-68
2021/08/20 11:33:29;;;;;;;9.97;9.30;;;20.80;99.90;;;;;;4940788;29;20531;-68
2021/08/20 11:35:58;;;;;;;10.67;9.87;;;21.00;99.90;;;;;;4941313;29;20989;-68
2021/08/20 11:38:29;;;;;;;10.10;9.20;;;21.00;99.90;;;;;;4933045;29;20473;-69
2021/08/20 11:41:01;;;;;;;11.10;10.20;;;21.00;99.90;;;;;;4949844;29;20517;-69
2021/08/20 11:43:28;;;;;;;10.70;9.80;;;21.10;99.90;;;;;;4935650;29;20473;-68
2021/08/20 11:46:00;;;;;;;9.40;8.70;;;21.10;99.90;;;;;;4934859;29;20595;-68
2021/08/20 11:48:27;;;;;;;8.13;7.57;;;21.10;99.90;;;;;;4936991;29;20602;-69
2021/08/20 11:50:54;;;;;;;10.47;9.67;;;21.10;99.90;;;;;;4954965;28;20493;-69
2021/08/20 11:53:23;;;;;;;10.00;9.13;;;21.00;99.90;;;;;;4955005;29;20468;-69
2021/08/20 11:55:51;;;;;;;9.53;8.83;;;21.00;99.90;;;;;;4955124;29;20572;-70
2021/08/20 11:58:28;;;;;;;11.33;10.53;;;21.00;99.90;;;;;;4955566;29;20457;-69
2021/08/20 12:00:55;;;;;;;9.50;8.83;;;20.80;99.90;;;;;;4924177;29;20497;-69
2021/08/20 12:03:23;;;;;;;10.93;10.03;;;20.80;99.90;;;;;;4937095;29;20857;-69
2021/08/20 12:05:49;;;;;;;9.80;9.10;;;20.70;99.90;;;;;;4935466;29;20473;-69
2021/08/20 12:08:17;;;;;;;9.30;8.80;;;20.80;99.90;;;;;;4935637;29;20493;-70
2021/08/20 12:10:45;;;;;;;10.07;9.30;;;20.90;99.90;;;;;;4953931;29;20484;-70
2021/08/20 12:13:14;;;;;;;10.07;9.37;;;20.90;99.90;;;;;;4954348;28;20536;-70
2021/08/20 12:15:41;;;;;;;9.00;8.50;;;21.00;99.90;;;;;;4952672;29;20476;-69
2021/08/20 12:18:22;;;;;;;9.50;8.90;;;21.10;99.90;;;;;;4916347;29;20882;-70
2021/08/20 12:20:49;;;;;;;8.27;7.70;;;21.30;99.90;;;;;;4916646;29;20530;-70
2021/08/20 12:23:16;;;;;;;8.80;7.90;;;21.20;99.90;;;;;;4916506;29;20469;-69
2021/08/20 12:25:43;;;;;;;9.60;8.70;;;21.20;99.90;;;;;;4916041;29;20474;-70
2021/08/20 12:28:12;;;;;;;8.83;8.20;;;21.10;99.90;;;;;;4916216;29;20492;-70
2021/08/20 12:30:41;;;;;;;10.60;9.50;;;21.00;99.90;;;;;;4951093;29;20506;-69
2021/08/20 12:33:08;;;;;;;8.60;7.90;;;20.90;99.90;;;;;;4954455;29;20469;-70
2021/08/20 12:35:36;;;;;;;9.07;8.47;;;20.80;99.90;;;;;;4954034;28;20850;-70
2021/08/20 12:38:06;;;;;;;8.37;7.80;;;20.90;99.90;;;;;;4954437;29;20952;-70
2021/08/20 12:40:34;;;;;;;8.23;7.67;;;21.00;99.90;;;;;;4936663;29;20489;-70
2021/08/20 12:43:01;;;;;;;8.00;7.50;;;21.30;99.90;;;;;;4935060;29;20465;-70
2021/08/20 12:45:28;;;;;;;7.53;6.93;;;21.60;99.90;;;;;;4934230;29;20569;-70
2021/08/20 12:48:04;;;;;;;5.47;5.27;;;21.80;99.90;;;;;;4935336;29;20500;-70
2021/08/20 12:50:31;;;;;;;6.73;6.23;;;21.80;99.90;;;;;;4935858;29;20532;-70
2021/08/20 12:53:03;;;;;;;6.17;5.87;;;21.90;99.90;;;;;;4946559;29;20864;-70
2021/08/20 12:55:32;;;;;;;7.63;7.13;;;21.90;99.90;;;;;;4953245;28;20468;-70
2021/08/20 12:58:01;;;;;;;6.47;5.97;;;21.80;99.90;;;;;;4954688;29;20465;-70
2021/08/20 13:00:31;;;;;;;6.20;5.90;;;21.70;99.90;;;;;;4941903;29;20477;-69
2021/08/20 13:02:59;;;;;;;6.20;5.90;;;21.60;99.90;;;;;;4935331;29;20521;-70
2021/08/20 13:05:27;;;;;;;6.80;6.30;;;21.60;99.90;;;;;;4935374;29;20585;-70
2021/08/20 13:07:54;;;;;;;6.57;6.07;;;21.60;99.90;;;;;;4934598;29;20541;-68
2021/08/20 13:10:21;;;;;;;6.00;5.70;;;21.60;99.90;;;;;;4944335;29;20464;-68
2021/08/20 13:12:47;;;;;;;6.27;5.83;;;21.60;99.90;;;;;;4954016;29;20889;-68
2021/08/20 13:15:15;;;;;;;6.20;5.90;;;21.40;99.90;;;;;;4953448;29;20464;-67
2021/08/20 13:17:42;;;;;;;5.90;5.67;;;21.30;99.90;;;;;;4954285;29;20469;-68
2021/08/20 13:20:10;;;;;;;5.87;5.67;;;21.20;99.90;;;;;;4948245;28;20877;-69
2021/08/20 13:22:41;;;;;;;6.60;6.10;;;21.00;99.90;;;;;;4953703;28;20478;-68
2021/08/20 13:25:08;;;;;;;7.63;7.07;;;20.80;99.90;;;;;;4962849;29;20471;-70
2021/08/20 13:27:35;;;;;;;7.53;7.03;;;20.40;99.90;;;;;;4962470;28;20863;-69
2021/08/20 13:30:02;;;;;;;7.90;6.10;;;20.00;99.90;;;;;;4948856;29;20472;-69
2021/08/20 13:32:28;;;;;;;6.50;6.00;;;19.70;99.90;;;;;;4935301;29;20497;-68
2021/08/20 13:34:55;;;;;;;6.10;5.70;;;19.30;99.90;;;;;;4935502;29;20476;-69
2021/08/20 13:37:21;;;;;;;6.30;5.90;;;19.10;99.90;;;;;;4934943;29;20469;-67
2021/08/20 13:39:49;;;;;;;6.40;6.00;;;18.90;99.90;;;;;;4933685;29;20983;-68
2021/08/20 13:42:16;;;;;;;7.60;6.83;;;18.90;99.90;;;;;;4954303;29;20543;-69
2021/08/20 13:44:43;;;;;;;6.40;5.90;;;18.80;99.90;;;;;;4953339;29;20615;-67
2021/08/20 13:47:09;;;;;;;6.87;6.37;;;18.80;99.90;;;;;;4953954;28;20850;-67
2021/08/20 13:49:36;;;;;;;6.47;5.87;;;18.70;99.90;;;;;;4946495;29;20498;-67
2021/08/20 13:52:03;;;;;;;6.53;6.10;;;18.70;99.90;;;;;;4934002;29;20994;-69
2021/08/20 13:54:29;;;;;;;5.70;5.40;;;18.80;99.90;;;;;;4934597;29;20520;-67
2021/08/20 13:56:57;;;;;;;6.47;6.00;;;18.90;99.90;;;;;;4933431;29;20469;-67
2021/08/20 13:59:25;;;;;;;6.40;6.07;;;19.00;99.90;;;;;;4952499;29;20543;-67
2021/08/20 14:01:52;;;;;;;5.80;5.30;;;19.10;99.90;;;;;;4941096;28;20998;-67
2021/08/20 14:04:19;;;;;;;4.90;4.60;;;19.40;99.90;;;;;;4937649;29;20528;-67
2021/08/20 14:06:46;;;;;;;5.20;5.00;;;19.50;99.90;;;;;;4937481;29;20872;-68
2021/08/20 14:09:13;;;;;;;4.97;4.67;;;19.70;99.90;;;;;;4954713;29;20543;-67
2021/08/20 14:11:39;;;;;;;4.97;4.77;;;19.70;99.90;;;;;;4956504;29;20481;-67
2021/08/20 14:14:07;;;;;;;5.20;4.87;;;19.70;99.90;;;;;;4956201;29;20527;-67
2021/08/20 14:16:34;;;;;;;5.30;5.00;;;19.70;99.90;;;;;;4941088;29;20876;-67
2021/08/20 14:19:01;;;;;;;5.17;4.73;;;19.70;99.90;;;;;;4948593;29;20461;-68
2021/08/20 14:21:27;;;;;;;5.63;5.27;;;19.70;99.90;;;;;;4956896;29;20635;-67
2021/08/20 14:23:54;;;;;;;6.00;5.63;;;19.70;99.90;;;;;;4956736;29;20872;-67
2021/08/20 14:26:21;;;;;;;6.07;5.57;;;19.70;99.90;;;;;;4956793;29;20513;-69
2021/08/20 14:28:47;;;;;;;5.53;5.20;;;19.70;99.90;;;;;;4950440;29;20599;-69
2021/08/20 14:31:16;;;;;;;6.60;6.00;;;19.50;99.90;;;;;;4956253;29;20786;-69
2021/08/20 14:33:43;;;;;;;6.13;5.73;;;19.40;99.90;;;;;;4955921;29;20523;-69
2021/08/20 14:36:09;;;;;;;4.73;4.33;;;19.30;99.90;;;;;;4956670;29;20461;-68
2021/08/20 14:38:36;;;;;;;4.00;3.80;;;19.20;99.90;;;;;;4945942;29;20461;-69
2021/08/20 14:41:03;;;;;;;3.90;3.70;;;19.20;99.90;;;;;;4938505;29;20544;-69
2021/08/20 14:43:29;;;;;;;3.60;3.40;;;19.20;99.90;;;;;;4956136;28;20582;-69
2021/08/20 14:45:56;;;;;;;6.50;3.20;;;19.10;99.90;;;;;;4956508;29;20471;-69
2021/08/20 14:48:24;;;;;;;3.23;2.93;;;19.10;99.90;;;;;;4948744;29;20481;-69
2021/08/20 14:50:51;;;;;;;3.57;3.27;;;19.10;99.90;;;;;;4937021;29;20489;-69
2021/08/20 14:53:17;;;;;;;2.70;2.70;;;19.10;99.90;;;;;;4937226;29;20501;-69
2021/08/20 14:55:44;;;;;;;2.00;2.00;;;19.00;99.90;;;;;;4936894;29;20528;-69
2021/08/20 14:58:10;;;;;;;2.10;2.10;;;19.00;99.90;;;;;;4942636;29;20599;-69
2021/08/20 15:00:37;;;;;;;5.13;2.40;;;19.00;99.90;;;;;;4955343;29;20536;-69
2021/08/20 15:03:06;;;;;;;2.10;2.10;;;18.90;99.90;;;;;;4948844;28;20540;-69
2021/08/20 15:05:35;;;;;;;2.53;2.40;;;18.90;99.90;;;;;;4926645;29;20477;-69
2021/08/20 15:08:01;;;;;;;2.67;2.47;;;18.90;99.90;;;;;;4942653;29;20497;-68
2021/08/20 15:10:28;;;;;;;2.93;2.83;;;18.90;99.90;;;;;;4942953;29;20982;-69
2021/08/20 15:12:56;;;;;;;2.77;2.67;;;18.90;99.90;;;;;;4936593;29;20469;-67
2021/08/20 15:15:23;;;;;;;3.20;3.10;;;18.90;99.90;;;;;;4943937;29;20472;-67
2021/08/20 15:17:50;;;;;;;4.07;3.63;;;18.90;99.90;;;;;;4941975;29;20483;-67
2021/08/20 15:20:16;;;;;;;3.57;3.47;;;18.80;99.90;;;;;;4935810;29;20457;-67
2021/08/20 15:22:44;;;;;;;3.23;3.13;;;18.80;99.90;;;;;;4936906;29;20489;-67
2021/08/20 15:25:12;;;;;;;3.30;3.10;;;18.80;99.90;;;;;;4942081;29;20473;-67
2021/08/20 15:27:40;;;;;;;3.37;3.27;;;18.80;99.90;;;;;;4951410;29;20461;-68
2021/08/20 15:30:09;;;;;;;3.20;3.07;;;18.80;99.90;;;;;;4938581;29;20485;-67
2021/08/20 15:32:37;;;;;;;4.20;4.10;;;18.80;99.90;;;;;;4952117;28;20892;-67
2021/08/20 15:35:05;;;;;;;3.20;3.20;;;18.80;99.90;;;;;;4939764;29;20472;-68
2021/08/20 15:37:31;;;;;;;3.40;3.30;;;18.90;99.90;;;;;;4933556;29;20525;-69
2021/08/20 15:39:59;;;;;;;3.23;3.13;;;18.90;99.90;;;;;;4930085;29;20851;-68
2021/08/20 15:42:27;;;;;;;3.73;3.53;;;18.90;99.90;;;;;;4950315;29;20556;-68
2021/08/20 15:44:54;;;;;;;4.33;4.13;;;18.90;99.90;;;;;;4935673;29;20561;-68
2021/08/20 15:47:20;;;;;;;3.70;3.50;;;18.90;99.90;;;;;;4943565;29;20461;-68
2021/08/20 15:49:47;;;;;;;3.83;3.73;;;18.90;99.90;;;;;;4933934;29;20489;-68
2021/08/20 15:52:16;;;;;;;4.43;4.23;;;18.90;99.90;;;;;;4935477;29;20493;-69
2021/08/20 15:54:44;;;;;;;5.07;4.77;;;18.90;99.90;;;;;;4935323;29;20493;-68
2021/08/20 15:57:12;;;;;;;3.90;3.73;;;18.90;99.90;;;;;;4935931;29;21200;-69
2021/08/20 15:59:39;;;;;;;4.60;4.40;;;18.90;99.90;;;;;;4935099;29;20465;-69
2021/08/20 16:02:06;;;;;;;3.97;3.87;;;18.90;99.90;;;;;;4935007;29;20489;-68
2021/08/20 16:04:33;;;;;;;4.70;4.30;;;18.90;99.90;;;;;;4932652;29;20515;-69
2021/08/20 16:07:04;;;;;;;4.53;4.33;;;19.00;99.90;;;;;;4931131;29;20475;-69
2021/08/20 16:09:31;;;;;;;4.53;4.33;;;19.00;99.90;;;;;;4933456;29;20580;-70
2021/08/20 16:11:58;;;;;;;4.37;3.93;;;19.00;99.90;;;;;;4937019;29;20811;-68
2021/08/20 16:14:26;;;;;;;4.20;4.10;;;19.00;99.90;;;;;;4931247;29;20500;-70
2021/08/20 16:16:52;;;;;;;4.53;4.23;;;19.00;99.90;;;;;;4926592;29;20467;-70
2021/08/20 16:19:20;;;;;;;4.90;4.60;;;18.90;99.90;;;;;;4935292;29;20469;-70
2021/08/20 16:21:46;;;;;;;4.57;4.33;;;18.90;99.90;;;;;;4935074;29;20969;-69
2021/08/20 16:24:13;;;;;;;5.00;4.70;;;18.90;99.90;;;;;;4934675;29;20501;-70
2021/08/20 16:26:41;;;;;;;5.03;4.63;;;18.90;99.90;;;;;;4935305;29;20548;-69
2021/08/20 16:29:07;;;;;;;4.10;4.00;;;19.00;99.90;;;;;;4934986;29;20493;-70
2021/08/20 16:31:35;;;;;;;5.10;4.80;;;18.90;99.90;;;;;;4934743;29;20513;-69
2021/08/20 16:34:02;;;;;;;4.70;4.40;;;18.90;99.90;;;;;;4933019;29;21044;-71
2021/08/20 16:36:30;;;;;;;6.20;5.00;;;18.90;99.90;;;;;;4935454;29;20457;-70
2021/08/20 16:38:57;;;;;;;5.23;4.90;;;18.90;99.90;;;;;;4933316;29;20466;-70
2021/08/20 16:41:24;;;;;;;6.00;5.50;;;18.90;99.90;;;;;;4928025;29;20493;-70
2021/08/20 16:43:51;;;;;;;4.40;4.20;;;19.00;99.90;;;;;;4933879;29;20480;-69
2021/08/20 16:46:18;;;;;;;5.47;5.17;;;18.90;99.90;;;;;;4930833;29;20478;-70
2021/08/20 16:48:46;;;;;;;5.67;5.27;;;18.90;99.90;;;;;;4935173;29;20485;-70
2021/08/20 16:51:12;;;;;;;5.63;5.23;;;18.90;99.90;;;;;;4921782;29;21007;-71